sensor_id;sensor_type;location;lat;lon;timestamp;temperature;humidity
5779;DHT22;2916;49.798;10.022;2022-09-13T00:01:05;15.20;99.90
5779;DHT22;2916;49.798;10.022;2022-09-13T00:03:32;15.10;99.90
5779;DHT22;2916;49.798;10.022;2022-09-13T00:06:07;15.00;99.90
5779;DHT22;2916;49.798;10.022;2022-09-13T00:08:35;15.00;99.90
5779;DHT22;2916;49.798;10.022;2022-09-13T00:11:03;15.10;99.90
5779;DHT22;2916;49.798;10.022;2022-09-13T00:13:31;15.10;99.90
5779;DHT22;2916;49.798;10.022;2022-09-13T00:15:58;15.10;99.90
5779;DHT22;2916;49.798;10.022;2022-09-13T00:18:28;15.00;99.90
5779;DHT22;2916;49.798;10.022;2022-09-13T00:21:07;14.90;99.90
5779;DHT22;2916;49.798;10.022;2022-09-13T00:23:35;14.80;99.90
5779;DHT22;2916;49.798;10.022;2022-09-13T00:26:05;14.80;99.90
5779;DHT22;2916;49.798;10.022;2022-09-13T00:28:36;14.70;99.90
5779;DHT22;2916;49.798;10.022;2022-09-13T00:31:06;14.60;99.90
5779;DHT22;2916;49.798;10.022;2022-09-13T00:33:35;14.60;99.90
5779;DHT22;2916;49.798;10.022;2022-09-13T00:36:05;14.60;99.90
5779;DHT22;2916;49.798;10.022;2022-09-13T00:38:34;14.50;99.90
5779;DHT22;2916;49.798;10.022;2022-09-13T00:41:02;14.50;99.90
5779;DHT22;2916;49.798;10.022;2022-09-13T00:43:50;14.50;99.90
5779;DHT22;2916;49.798;10.022;2022-09-13T00:46:24;14.40;99.90
5779;DHT22;2916;49.798;10.022;2022-09-13T00:49:00;14.40;99.90
5779;DHT22;2916;49.798;10.022;2022-09-13T00:51:35;14.30;99.90
5779;DHT22;2916;49.798;10.022;2022-09-13T00:54:02;14.30;99.90
5779;DHT22;2916;49.798;10.022;2022-09-13T00:56:35;14.30;99.90
5779;DHT22;2916;49.798;10.022;2022-09-13T00:59:11;14.20;99.90
5779;DHT22;2916;49.798;10.022;2022-09-13T01:01:45;14.20;99.90
5779;DHT22;2916;49.798;10.022;2022-09-13T01:04:18;14.10;99.90
5779;DHT22;2916;49.798;10.022;2022-09-13T01:06:50;14.10;99.90
5779;DHT22;2916;49.798;10.022;2022-09-13T01:09:23;14.10;99.90
5779;DHT22;2916;49.798;10.022;2022-09-13T01:11:54;14.00;99.90
5779;DHT22;2916;49.798;10.022;2022-09-13T01:14:31;14.00;99.90
5779;DHT22;2916;49.798;10.022;2022-09-13T01:16:59;14.00;99.90
5779;DHT22;2916;49.798;10.022;2022-09-13T01:19:26;14.00;99.90
5779;DHT22;2916;49.798;10.022;2022-09-13T01:29:04;13.80;99.90
5779;DHT22;2916;49.798;10.022;2022-09-13T01:31:59;13.80;99.90
5779;DHT22;2916;49.798;10.022;2022-09-13T01:34:41;13.80;99.90
5779;DHT22;2916;49.798;10.022;2022-09-13T01:37:32;13.70;99.90
5779;DHT22;2916;49.798;10.022;2022-09-13T01:40:16;13.70;99.90
5779;DHT22;2916;49.798;10.022;2022-09-13T01:43:08;13.70;99.90
5779;DHT22;2916;49.798;10.022;2022-09-13T01:45:51;13.70;99.90
5779;DHT22;2916;49.798;10.022;2022-09-13T01:48:35;13.60;99.90
5779;DHT22;2916;49.798;10.022;2022-09-13T01:51:21;13.60;99.90
5779;DHT22;2916;49.798;10.022;2022-09-13T01:54:11;13.40;99.90
5779;DHT22;2916;49.798;10.022;2022-09-13T01:56:50;13.30;99.90
5779;DHT22;2916;49.798;10.022;2022-09-13T01:59:35;13.30;99.90
5779;DHT22;2916;49.798;10.022;2022-09-13T02:02:15;13.30;99.90
5779;DHT22;2916;49.798;10.022;2022-09-13T02:04:50;13.30;99.90
5779;DHT22;2916;49.798;10.022;2022-09-13T02:07:24;13.30;99.90
5779;DHT22;2916;49.798;10.022;2022-09-13T02:09:59;13.30;99.90
5779;DHT22;2916;49.798;10.022;2022-09-13T02:12:33;13.20;99.90
5779;DHT22;2916;49.798;10.022;2022-09-13T02:15:09;13.20;99.90
5779;DHT22;2916;49.798;10.022;2022-09-13T02:17:45;13.20;99.90
5779;DHT22;2916;49.798;10.022;2022-09-13T02:20:21;13.10;99.90
5779;DHT22;2916;49.798;10.022;2022-09-13T02:22:55;13.00;99.90
5779;DHT22;2916;49.798;10.022;2022-09-13T02:25:27;13.10;99.90
5779;DHT22;2916;49.798;10.022;2022-09-13T02:28:01;13.10;99.90
5779;DHT22;2916;49.798;10.022;2022-09-13T02:30:33;13.20;99.90
5779;DHT22;2916;49.798;10.022;2022-09-13T02:33:09;13.30;99.90
5779;DHT22;2916;49.798;10.022;2022-09-13T02:35:45;13.40;99.90
5779;DHT22;2916;49.798;10.022;2022-09-13T02:38:20;13.40;99.90
5779;DHT22;2916;49.798;10.022;2022-09-13T02:40:58;13.30;99.90
5779;DHT22;2916;49.798;10.022;2022-09-13T02:43:33;13.30;99.90
5779;DHT22;2916;49.798;10.022;2022-09-13T02:46:13;13.20;99.90
5779;DHT22;2916;49.798;10.022;2022-09-13T02:48:58;13.20;99.90
5779;DHT22;2916;49.798;10.022;2022-09-13T02:51:41;13.20;99.90
5779;DHT22;2916;49.798;10.022;2022-09-13T02:54:23;13.30;99.90
5779;DHT22;2916;49.798;10.022;2022-09-13T02:57:00;13.30;99.90
5779;DHT22;2916;49.798;10.022;2022-09-13T02:59:31;13.20;99.90
5779;DHT22;2916;49.798;10.022;2022-09-13T03:02:02;13.30;99.90
5779;DHT22;2916;49.798;10.022;2022-09-13T03:04:33;13.20;99.90
5779;DHT22;2916;49.798;10.022;2022-09-13T03:07:02;13.10;99.90
5779;DHT22;2916;49.798;10.022;2022-09-13T03:09:32;13.10;99.90
5779;DHT22;2916;49.798;10.022;2022-09-13T03:15:23;13.10;99.90
5779;DHT22;2916;49.798;10.022;2022-09-13T03:18:06;13.00;99.90
5779;DHT22;2916;49.798;10.022;2022-09-13T03:20:56;12.90;99.90
5779;DHT22;2916;49.798;10.022;2022-09-13T03:23:46;12.90;99.90
5779;DHT22;2916;49.798;10.022;2022-09-13T03:26:26;12.80;99.90
5779;DHT22;2916;49.798;10.022;2022-09-13T03:29:21;12.80;99.90
5779;DHT22;2916;49.798;10.022;2022-09-13T03:32:05;12.80;99.90
5779;DHT22;2916;49.798;10.022;2022-09-13T03:34:49;12.70;99.90
5779;DHT22;2916;49.798;10.022;2022-09-13T03:37:25;12.70;99.90
5779;DHT22;2916;49.798;10.022;2022-09-13T03:40:00;12.70;99.90
5779;DHT22;2916;49.798;10.022;2022-09-13T03:42:40;12.60;99.90
5779;DHT22;2916;49.798;10.022;2022-09-13T03:45:13;12.70;99.90
5779;DHT22;2916;49.798;10.022;2022-09-13T03:47:45;12.80;99.90
5779;DHT22;2916;49.798;10.022;2022-09-13T03:50:18;12.80;99.90
5779;DHT22;2916;49.798;10.022;2022-09-13T03:52:51;12.80;99.90
5779;DHT22;2916;49.798;10.022;2022-09-13T03:55:24;12.80;99.90
5779;DHT22;2916;49.798;10.022;2022-09-13T03:57:51;12.80;99.90
5779;DHT22;2916;49.798;10.022;2022-09-13T04:00:19;12.80;99.90
5779;DHT22;2916;49.798;10.022;2022-09-13T04:02:46;12.80;99.90
5779;DHT22;2916;49.798;10.022;2022-09-13T04:05:14;12.70;99.90
5779;DHT22;2916;49.798;10.022;2022-09-13T04:07:41;12.70;99.90
5779;DHT22;2916;49.798;10.022;2022-09-13T04:10:09;12.70;99.90
5779;DHT22;2916;49.798;10.022;2022-09-13T04:12:37;12.60;99.90
5779;DHT22;2916;49.798;10.022;2022-09-13T04:15:07;12.70;99.90
5779;DHT22;2916;49.798;10.022;2022-09-13T04:17:35;12.60;99.90
5779;DHT22;2916;49.798;10.022;2022-09-13T04:20:03;12.60;99.90
5779;DHT22;2916;49.798;10.022;2022-09-13T04:22:31;12.60;99.90
5779;DHT22;2916;49.798;10.022;2022-09-13T04:24:58;12.60;99.90
5779;DHT22;2916;49.798;10.022;2022-09-13T04:27:25;12.60;99.90
5779;DHT22;2916;49.798;10.022;2022-09-13T04:29:53;12.50;99.90
5779;DHT22;2916;49.798;10.022;2022-09-13T04:32:20;12.40;99.90
5779;DHT22;2916;49.798;10.022;2022-09-13T04:34:47;12.30;99.90
5779;DHT22;2916;49.798;10.022;2022-09-13T04:37:15;12.30;99.90
5779;DHT22;2916;49.798;10.022;2022-09-13T04:39:42;12.40;99.90
5779;DHT22;2916;49.798;10.022;2022-09-13T04:42:09;12.40;99.90
5779;DHT22;2916;49.798;10.022;2022-09-13T04:44:36;12.50;99.90
5779;DHT22;2916;49.798;10.022;2022-09-13T04:47:05;12.40;99.90
5779;DHT22;2916;49.798;10.022;2022-09-13T04:49:33;12.40;99.90
5779;DHT22;2916;49.798;10.022;2022-09-13T04:52:01;12.40;99.90
5779;DHT22;2916;49.798;10.022;2022-09-13T04:54:28;12.40;99.90
5779;DHT22;2916;49.798;10.022;2022-09-13T04:56:55;12.40;99.90
5779;DHT22;2916;49.798;10.022;2022-09-13T04:59:23;12.40;99.90
5779;DHT22;2916;49.798;10.022;2022-09-13T05:01:50;12.50;99.90
5779;DHT22;2916;49.798;10.022;2022-09-13T05:04:18;12.50;99.90
5779;DHT22;2916;49.798;10.022;2022-09-13T05:06:45;12.50;99.90
5779;DHT22;2916;49.798;10.022;2022-09-13T05:09:14;12.60;99.90
5779;DHT22;2916;49.798;10.022;2022-09-13T05:11:41;12.60;99.90
5779;DHT22;2916;49.798;10.022;2022-09-13T05:14:10;12.70;99.90
5779;DHT22;2916;49.798;10.022;2022-09-13T05:16:37;12.70;99.90
5779;DHT22;2916;49.798;10.022;2022-09-13T05:19:05;12.80;99.90
5779;DHT22;2916;49.798;10.022;2022-09-13T05:21:34;12.80;99.90
5779;DHT22;2916;49.798;10.022;2022-09-13T05:24:01;12.80;99.90
5779;DHT22;2916;49.798;10.022;2022-09-13T05:26:29;12.80;99.90
5779;DHT22;2916;49.798;10.022;2022-09-13T05:28:57;12.90;99.90
5779;DHT22;2916;49.798;10.022;2022-09-13T05:31:27;12.90;99.90
5779;DHT22;2916;49.798;10.022;2022-09-13T05:33:57;13.00;99.90
5779;DHT22;2916;49.798;10.022;2022-09-13T05:36:26;13.10;99.90
5779;DHT22;2916;49.798;10.022;2022-09-13T05:38:55;13.00;99.90
5779;DHT22;2916;49.798;10.022;2022-09-13T05:41:23;13.10;99.90
5779;DHT22;2916;49.798;10.022;2022-09-13T05:43:50;13.20;99.90
5779;DHT22;2916;49.798;10.022;2022-09-13T05:46:19;13.20;99.90
5779;DHT22;2916;49.798;10.022;2022-09-13T05:48:48;13.20;99.90
5779;DHT22;2916;49.798;10.022;2022-09-13T05:51:16;13.20;99.90
5779;DHT22;2916;49.798;10.022;2022-09-13T05:53:46;13.30;99.90
5779;DHT22;2916;49.798;10.022;2022-09-13T05:56:17;13.40;99.90
5779;DHT22;2916;49.798;10.022;2022-09-13T05:58:47;13.40;99.90
5779;DHT22;2916;49.798;10.022;2022-09-13T06:01:17;13.40;99.90
5779;DHT22;2916;49.798;10.022;2022-09-13T06:03:46;13.60;99.90
5779;DHT22;2916;49.798;10.022;2022-09-13T06:06:14;13.60;99.90
5779;DHT22;2916;49.798;10.022;2022-09-13T06:08:42;13.60;99.90
5779;DHT22;2916;49.798;10.022;2022-09-13T06:11:11;13.80;99.90
5779;DHT22;2916;49.798;10.022;2022-09-13T06:13:40;13.70;99.90
5779;DHT22;2916;49.798;10.022;2022-09-13T06:16:10;13.80;99.90
5779;DHT22;2916;49.798;10.022;2022-09-13T06:18:38;13.80;99.90
5779;DHT22;2916;49.798;10.022;2022-09-13T06:21:07;13.90;99.90
5779;DHT22;2916;49.798;10.022;2022-09-13T06:23:36;13.90;99.90
5779;DHT22;2916;49.798;10.022;2022-09-13T06:26:07;13.80;99.90
5779;DHT22;2916;49.798;10.022;2022-09-13T06:28:36;13.90;99.90
5779;DHT22;2916;49.798;10.022;2022-09-13T06:31:06;14.00;99.90
5779;DHT22;2916;49.798;10.022;2022-09-13T06:33:37;14.10;99.90
5779;DHT22;2916;49.798;10.022;2022-09-13T06:36:07;14.10;99.90
5779;DHT22;2916;49.798;10.022;2022-09-13T06:38:37;14.30;99.90
5779;DHT22;2916;49.798;10.022;2022-09-13T06:41:06;14.50;99.90
5779;DHT22;2916;49.798;10.022;2022-09-13T06:43:35;14.60;99.90
5779;DHT22;2916;49.798;10.022;2022-09-13T06:46:05;14.70;99.90
5779;DHT22;2916;49.798;10.022;2022-09-13T06:48:35;14.80;99.90
5779;DHT22;2916;49.798;10.022;2022-09-13T06:51:05;14.90;99.90
5779;DHT22;2916;49.798;10.022;2022-09-13T06:53:35;15.00;99.90
5779;DHT22;2916;49.798;10.022;2022-09-13T06:56:05;15.00;99.90
5779;DHT22;2916;49.798;10.022;2022-09-13T06:58:35;15.10;99.90
5779;DHT22;2916;49.798;10.022;2022-09-13T07:01:09;15.10;99.90
5779;DHT22;2916;49.798;10.022;2022-09-13T07:03:40;15.00;99.90
5779;DHT22;2916;49.798;10.022;2022-09-13T07:06:10;15.00;99.90
5779;DHT22;2916;49.798;10.022;2022-09-13T07:08:39;15.10;99.90
5779;DHT22;2916;49.798;10.022;2022-09-13T07:11:08;15.20;99.90
5779;DHT22;2916;49.798;10.022;2022-09-13T07:13:36;15.20;99.90
5779;DHT22;2916;49.798;10.022;2022-09-13T07:16:06;15.30;99.90
5779;DHT22;2916;49.798;10.022;2022-09-13T07:18:36;15.30;99.90
5779;DHT22;2916;49.798;10.022;2022-09-13T07:21:08;15.40;99.90
5779;DHT22;2916;49.798;10.022;2022-09-13T07:23:38;15.70;99.90
5779;DHT22;2916;49.798;10.022;2022-09-13T07:26:06;15.80;99.90
5779;DHT22;2916;49.798;10.022;2022-09-13T07:28:35;15.80;99.90
5779;DHT22;2916;49.798;10.022;2022-09-13T07:31:05;15.90;99.90
5779;DHT22;2916;49.798;10.022;2022-09-13T07:33:35;15.90;99.90
5779;DHT22;2916;49.798;10.022;2022-09-13T07:36:03;15.90;99.90
5779;DHT22;2916;49.798;10.022;2022-09-13T07:38:33;15.90;99.90
5779;DHT22;2916;49.798;10.022;2022-09-13T07:41:01;16.20;99.90
5779;DHT22;2916;49.798;10.022;2022-09-13T07:43:31;16.20;99.90
5779;DHT22;2916;49.798;10.022;2022-09-13T07:45:59;16.20;99.90
5779;DHT22;2916;49.798;10.022;2022-09-13T07:48:30;16.30;99.90
5779;DHT22;2916;49.798;10.022;2022-09-13T07:51:00;16.40;99.90
5779;DHT22;2916;49.798;10.022;2022-09-13T07:53:30;16.50;99.90
5779;DHT22;2916;49.798;10.022;2022-09-13T07:56:01;16.70;99.90
5779;DHT22;2916;49.798;10.022;2022-09-13T07:58:30;16.80;99.90
5779;DHT22;2916;49.798;10.022;2022-09-13T08:01:04;16.80;99.90
5779;DHT22;2916;49.798;10.022;2022-09-13T08:03:34;17.00;99.90
5779;DHT22;2916;49.798;10.022;2022-09-13T08:06:03;17.10;99.90
5779;DHT22;2916;49.798;10.022;2022-09-13T08:08:32;17.20;99.90
5779;DHT22;2916;49.798;10.022;2022-09-13T08:11:02;17.30;99.90
5779;DHT22;2916;49.798;10.022;2022-09-13T08:13:31;17.00;99.90
5779;DHT22;2916;49.798;10.022;2022-09-13T08:16:01;17.20;99.90
5779;DHT22;2916;49.798;10.022;2022-09-13T08:18:29;17.30;99.90
5779;DHT22;2916;49.798;10.022;2022-09-13T08:20:59;17.50;99.90
5779;DHT22;2916;49.798;10.022;2022-09-13T08:23:27;17.70;99.90
5779;DHT22;2916;49.798;10.022;2022-09-13T08:25:59;17.60;99.90
5779;DHT22;2916;49.798;10.022;2022-09-13T08:28:28;17.70;99.90
5779;DHT22;2916;49.798;10.022;2022-09-13T08:31:01;17.90;99.90
5779;DHT22;2916;49.798;10.022;2022-09-13T08:33:29;18.10;99.90
5779;DHT22;2916;49.798;10.022;2022-09-13T08:35:59;18.50;99.90
5779;DHT22;2916;49.798;10.022;2022-09-13T08:38:26;18.40;99.90
5779;DHT22;2916;49.798;10.022;2022-09-13T08:40:57;18.70;99.90
5779;DHT22;2916;49.798;10.022;2022-09-13T08:43:39;18.80;99.90
5779;DHT22;2916;49.798;10.022;2022-09-13T08:46:21;18.80;99.90
5779;DHT22;2916;49.798;10.022;2022-09-13T08:48:55;18.90;99.90
5779;DHT22;2916;49.798;10.022;2022-09-13T08:51:31;18.80;99.90
5779;DHT22;2916;49.798;10.022;2022-09-13T08:54:03;19.00;99.90
5779;DHT22;2916;49.798;10.022;2022-09-13T08:56:37;18.90;99.90
5779;DHT22;2916;49.798;10.022;2022-09-13T08:59:25;18.80;99.90
5779;DHT22;2916;49.798;10.022;2022-09-13T09:02:19;18.70;99.90
5779;DHT22;2916;49.798;10.022;2022-09-13T09:04:57;18.70;99.90
5779;DHT22;2916;49.798;10.022;2022-09-13T09:07:38;18.70;99.90
5779;DHT22;2916;49.798;10.022;2022-09-13T09:10:14;18.80;99.90
5779;DHT22;2916;49.798;10.022;2022-09-13T09:12:47;18.60;99.90
5779;DHT22;2916;49.798;10.022;2022-09-13T09:15:20;18.80;99.90
5779;DHT22;2916;49.798;10.022;2022-09-13T09:17:55;18.80;99.90
5779;DHT22;2916;49.798;10.022;2022-09-13T09:20:28;18.90;99.90
5779;DHT22;2916;49.798;10.022;2022-09-13T09:23:03;18.90;99.90
5779;DHT22;2916;49.798;10.022;2022-09-13T09:25:34;18.60;99.90
5779;DHT22;2916;49.798;10.022;2022-09-13T09:28:05;18.80;99.90
5779;DHT22;2916;49.798;10.022;2022-09-13T09:30:42;18.80;99.90
5779;DHT22;2916;49.798;10.022;2022-09-13T09:33:26;18.80;99.90
5779;DHT22;2916;49.798;10.022;2022-09-13T09:36:05;18.90;99.90
5779;DHT22;2916;49.798;10.022;2022-09-13T09:38:42;18.90;99.90
5779;DHT22;2916;49.798;10.022;2022-09-13T09:41:15;19.10;99.90
5779;DHT22;2916;49.798;10.022;2022-09-13T09:43:57;19.30;99.90
5779;DHT22;2916;49.798;10.022;2022-09-13T09:46:31;19.30;99.90
5779;DHT22;2916;49.798;10.022;2022-09-13T09:49:06;19.50;99.90
5779;DHT22;2916;49.798;10.022;2022-09-13T09:51:54;19.50;99.90
5779;DHT22;2916;49.798;10.022;2022-09-13T09:54:25;19.60;99.90
5779;DHT22;2916;49.798;10.022;2022-09-13T09:56:54;19.60;99.90
5779;DHT22;2916;49.798;10.022;2022-09-13T09:59:26;19.40;99.90
5779;DHT22;2916;49.798;10.022;2022-09-13T10:01:57;19.80;99.90
5779;DHT22;2916;49.798;10.022;2022-09-13T10:04:27;20.00;99.90
5779;DHT22;2916;49.798;10.022;2022-09-13T10:07:10;20.40;99.90
5779;DHT22;2916;49.798;10.022;2022-09-13T10:09:57;20.40;99.90
5779;DHT22;2916;49.798;10.022;2022-09-13T10:12:30;20.60;99.90
5779;DHT22;2916;49.798;10.022;2022-09-13T10:15:06;20.90;99.90
5779;DHT22;2916;49.798;10.022;2022-09-13T10:17:42;21.10;99.90
5779;DHT22;2916;49.798;10.022;2022-09-13T10:20:20;20.90;99.90
5779;DHT22;2916;49.798;10.022;2022-09-13T10:23:10;20.90;99.90
5779;DHT22;2916;49.798;10.022;2022-09-13T10:25:54;21.20;99.90
5779;DHT22;2916;49.798;10.022;2022-09-13T10:28:25;21.50;99.90
5779;DHT22;2916;49.798;10.022;2022-09-13T10:30:55;21.50;99.90
5779;DHT22;2916;49.798;10.022;2022-09-13T10:33:27;21.50;99.90
5779;DHT22;2916;49.798;10.022;2022-09-13T10:36:00;21.80;99.30
5779;DHT22;2916;49.798;10.022;2022-09-13T10:38:31;21.70;94.00
5779;DHT22;2916;49.798;10.022;2022-09-13T10:41:05;21.80;92.50
5779;DHT22;2916;49.798;10.022;2022-09-13T10:43:35;21.90;89.60
5779;DHT22;2916;49.798;10.022;2022-09-13T10:46:05;21.70;82.10
5779;DHT22;2916;49.798;10.022;2022-09-13T10:48:46;21.80;93.10
5779;DHT22;2916;49.798;10.022;2022-09-13T10:51:30;21.80;99.90
5779;DHT22;2916;49.798;10.022;2022-09-13T10:54:17;21.60;99.00
5779;DHT22;2916;49.798;10.022;2022-09-13T10:56:48;21.50;99.90
5779;DHT22;2916;49.798;10.022;2022-09-13T10:59:21;21.70;99.90
5779;DHT22;2916;49.798;10.022;2022-09-13T11:02:18;21.40;93.80
5779;DHT22;2916;49.798;10.022;2022-09-13T11:05:20;21.50;98.60
5779;DHT22;2916;49.798;10.022;2022-09-13T11:11:12;21.70;99.90
5779;DHT22;2916;49.798;10.022;2022-09-13T11:13:56;21.70;99.90
5779;DHT22;2916;49.798;10.022;2022-09-13T11:16:40;21.30;99.90
5779;DHT22;2916;49.798;10.022;2022-09-13T11:19:51;21.30;99.90
5779;DHT22;2916;49.798;10.022;2022-09-13T11:22:52;21.10;99.90
5779;DHT22;2916;49.798;10.022;2022-09-13T11:25:56;21.10;99.90
5779;DHT22;2916;49.798;10.022;2022-09-13T11:28:39;21.00;99.90
5779;DHT22;2916;49.798;10.022;2022-09-13T11:31:32;20.90;99.90
5779;DHT22;2916;49.798;10.022;2022-09-13T11:34:16;20.80;99.90
5779;DHT22;2916;49.798;10.022;2022-09-13T11:40:33;20.70;99.90
5779;DHT22;2916;49.798;10.022;2022-09-13T11:43:21;20.90;99.90
5779;DHT22;2916;49.798;10.022;2022-09-13T11:46:08;20.80;99.90
5779;DHT22;2916;49.798;10.022;2022-09-13T11:52:10;20.60;99.90
5779;DHT22;2916;49.798;10.022;2022-09-13T11:54:56;20.70;99.90
5779;DHT22;2916;49.798;10.022;2022-09-13T11:57:34;20.40;99.90
5779;DHT22;2916;49.798;10.022;2022-09-13T12:00:23;20.40;99.90
5779;DHT22;2916;49.798;10.022;2022-09-13T12:03:13;20.40;99.90
5779;DHT22;2916;49.798;10.022;2022-09-13T12:05:52;20.40;99.90
5779;DHT22;2916;49.798;10.022;2022-09-13T12:08:25;20.60;99.90
5779;DHT22;2916;49.798;10.022;2022-09-13T12:10:59;20.50;99.90
5779;DHT22;2916;49.798;10.022;2022-09-13T12:13:34;20.60;99.90
5779;DHT22;2916;49.798;10.022;2022-09-13T12:16:08;20.50;99.90
5779;DHT22;2916;49.798;10.022;2022-09-13T12:18:42;20.40;99.90
5779;DHT22;2916;49.798;10.022;2022-09-13T12:21:15;20.50;99.90
5779;DHT22;2916;49.798;10.022;2022-09-13T12:23:49;20.60;99.90
5779;DHT22;2916;49.798;10.022;2022-09-13T12:26:25;20.60;99.90
5779;DHT22;2916;49.798;10.022;2022-09-13T12:29:00;20.70;99.90
5779;DHT22;2916;49.798;10.022;2022-09-13T12:31:33;20.70;99.90
5779;DHT22;2916;49.798;10.022;2022-09-13T12:34:05;20.70;99.90
5779;DHT22;2916;49.798;10.022;2022-09-13T12:40:14;20.90;99.90
5779;DHT22;2916;49.798;10.022;2022-09-13T12:43:11;21.00;99.90
5779;DHT22;2916;49.798;10.022;2022-09-13T12:46:17;21.00;99.90
5779;DHT22;2916;49.798;10.022;2022-09-13T12:49:08;21.20;99.90
5779;DHT22;2916;49.798;10.022;2022-09-13T12:52:15;21.30;99.90
5779;DHT22;2916;49.798;10.022;2022-09-13T12:55:21;21.40;96.90
5779;DHT22;2916;49.798;10.022;2022-09-13T13:01:14;21.30;92.90
5779;DHT22;2916;49.798;10.022;2022-09-13T13:03:48;21.40;92.50
5779;DHT22;2916;49.798;10.022;2022-09-13T13:06:31;21.40;90.50
5779;DHT22;2916;49.798;10.022;2022-09-13T13:09:06;21.60;88.50
5779;DHT22;2916;49.798;10.022;2022-09-13T13:11:49;21.60;84.20
5779;DHT22;2916;49.798;10.022;2022-09-13T13:17:43;21.70;84.60
5779;DHT22;2916;49.798;10.022;2022-09-13T13:20:43;21.80;74.00
5779;DHT22;2916;49.798;10.022;2022-09-13T13:23:21;21.90;71.00
5779;DHT22;2916;49.798;10.022;2022-09-13T13:25:59;21.90;69.50
5779;DHT22;2916;49.798;10.022;2022-09-13T13:29:09;22.00;75.30
5779;DHT22;2916;49.798;10.022;2022-09-13T13:31:45;22.10;55.30
5779;DHT22;2916;49.798;10.022;2022-09-13T13:34:43;22.10;69.60
5779;DHT22;2916;49.798;10.022;2022-09-13T13:37:34;22.20;54.40
5779;DHT22;2916;49.798;10.022;2022-09-13T13:40:22;22.30;53.80
5779;DHT22;2916;49.798;10.022;2022-09-13T13:43:24;22.30;58.70
5779;DHT22;2916;49.798;10.022;2022-09-13T13:55:40;22.70;41.10
5779;DHT22;2916;49.798;10.022;2022-09-13T13:58:30;22.70;39.20
5779;DHT22;2916;49.798;10.022;2022-09-13T14:01:13;22.70;35.50
5779;DHT22;2916;49.798;10.022;2022-09-13T14:07:31;23.00;39.50
5779;DHT22;2916;49.798;10.022;2022-09-13T14:10:19;22.90;41.80
5779;DHT22;2916;49.798;10.022;2022-09-13T14:13:00;22.90;35.70
5779;DHT22;2916;49.798;10.022;2022-09-13T14:15:51;22.90;30.10
5779;DHT22;2916;49.798;10.022;2022-09-13T14:18:39;22.80;29.10
5779;DHT22;2916;49.798;10.022;2022-09-13T14:21:20;22.80;29.30
5779;DHT22;2916;49.798;10.022;2022-09-13T14:23:49;22.70;32.70
5779;DHT22;2916;49.798;10.022;2022-09-13T14:26:18;22.70;30.30
5779;DHT22;2916;49.798;10.022;2022-09-13T14:28:46;22.70;36.40
5779;DHT22;2916;49.798;10.022;2022-09-13T14:31:18;22.80;36.30
5779;DHT22;2916;49.798;10.022;2022-09-13T14:33:45;22.80;35.70
5779;DHT22;2916;49.798;10.022;2022-09-13T14:36:18;22.90;41.50
5779;DHT22;2916;49.798;10.022;2022-09-13T14:38:48;23.10;40.10
5779;DHT22;2916;49.798;10.022;2022-09-13T14:41:19;22.90;39.30
5779;DHT22;2916;49.798;10.022;2022-09-13T14:43:48;22.90;44.20
5779;DHT22;2916;49.798;10.022;2022-09-13T14:46:20;22.80;41.00
5779;DHT22;2916;49.798;10.022;2022-09-13T14:48:55;22.80;42.30
5779;DHT22;2916;49.798;10.022;2022-09-13T14:51:28;22.90;43.40
5779;DHT22;2916;49.798;10.022;2022-09-13T14:54:04;22.80;44.50
5779;DHT22;2916;49.798;10.022;2022-09-13T14:56:41;22.80;44.60
5779;DHT22;2916;49.798;10.022;2022-09-13T14:59:13;22.90;44.50
5779;DHT22;2916;49.798;10.022;2022-09-13T15:01:45;23.00;45.80
5779;DHT22;2916;49.798;10.022;2022-09-13T15:04:12;22.90;44.20
5779;DHT22;2916;49.798;10.022;2022-09-13T15:06:44;23.00;47.20
5779;DHT22;2916;49.798;10.022;2022-09-13T15:09:24;22.90;41.40
5779;DHT22;2916;49.798;10.022;2022-09-13T15:11:57;22.90;49.70
5779;DHT22;2916;49.798;10.022;2022-09-13T15:14:27;22.90;43.20
5779;DHT22;2916;49.798;10.022;2022-09-13T15:17:05;23.00;49.00
5779;DHT22;2916;49.798;10.022;2022-09-13T15:19:39;23.00;41.80
5779;DHT22;2916;49.798;10.022;2022-09-13T15:22:21;23.10;43.70
5779;DHT22;2916;49.798;10.022;2022-09-13T15:24:51;23.20;37.10
5779;DHT22;2916;49.798;10.022;2022-09-13T15:27:23;23.20;46.70
5779;DHT22;2916;49.798;10.022;2022-09-13T15:29:54;23.20;39.50
5779;DHT22;2916;49.798;10.022;2022-09-13T15:32:33;23.30;35.50
5779;DHT22;2916;49.798;10.022;2022-09-13T15:35:16;23.30;33.70
5779;DHT22;2916;49.798;10.022;2022-09-13T15:37:57;23.30;30.80
5779;DHT22;2916;49.798;10.022;2022-09-13T15:40:28;23.40;37.70
5779;DHT22;2916;49.798;10.022;2022-09-13T15:42:56;23.40;32.20
5779;DHT22;2916;49.798;10.022;2022-09-13T15:45:25;23.40;35.00
5779;DHT22;2916;49.798;10.022;2022-09-13T15:47:53;23.30;36.10
5779;DHT22;2916;49.798;10.022;2022-09-13T15:50:24;23.20;35.70
5779;DHT22;2916;49.798;10.022;2022-09-13T15:52:54;23.20;32.20
5779;DHT22;2916;49.798;10.022;2022-09-13T15:55:21;23.20;36.20
5779;DHT22;2916;49.798;10.022;2022-09-13T15:57:50;23.20;32.50
5779;DHT22;2916;49.798;10.022;2022-09-13T16:00:19;22.90;31.80
5779;DHT22;2916;49.798;10.022;2022-09-13T16:02:48;22.90;36.70
5779;DHT22;2916;49.798;10.022;2022-09-13T16:05:18;23.10;40.60
5779;DHT22;2916;49.798;10.022;2022-09-13T16:07:45;23.10;42.00
5779;DHT22;2916;49.798;10.022;2022-09-13T16:10:15;23.10;50.70
5779;DHT22;2916;49.798;10.022;2022-09-13T16:12:44;23.10;56.40
5779;DHT22;2916;49.798;10.022;2022-09-13T16:15:11;23.20;75.40
5779;DHT22;2916;49.798;10.022;2022-09-13T16:17:39;23.20;72.30
5779;DHT22;2916;49.798;10.022;2022-09-13T16:20:11;23.10;61.60
5779;DHT22;2916;49.798;10.022;2022-09-13T16:22:41;23.10;83.70
5779;DHT22;2916;49.798;10.022;2022-09-13T16:25:09;22.90;94.40
5779;DHT22;2916;49.798;10.022;2022-09-13T16:27:38;22.90;97.80
5779;DHT22;2916;49.798;10.022;2022-09-13T16:30:08;22.90;99.90
5779;DHT22;2916;49.798;10.022;2022-09-13T16:32:37;22.60;95.90
5779;DHT22;2916;49.798;10.022;2022-09-13T16:35:04;22.40;98.00
5779;DHT22;2916;49.798;10.022;2022-09-13T16:37:32;22.30;94.60
5779;DHT22;2916;49.798;10.022;2022-09-13T16:40:02;22.30;96.50
5779;DHT22;2916;49.798;10.022;2022-09-13T16:42:30;22.10;92.90
5779;DHT22;2916;49.798;10.022;2022-09-13T16:44:57;22.00;93.70
5779;DHT22;2916;49.798;10.022;2022-09-13T16:47:24;22.00;91.60
5779;DHT22;2916;49.798;10.022;2022-09-13T16:49:51;22.10;96.60
5779;DHT22;2916;49.798;10.022;2022-09-13T16:52:19;22.10;91.20
5779;DHT22;2916;49.798;10.022;2022-09-13T16:54:46;22.10;89.40
5779;DHT22;2916;49.798;10.022;2022-09-13T16:57:15;22.00;95.10
5779;DHT22;2916;49.798;10.022;2022-09-13T16:59:42;22.10;93.40
5779;DHT22;2916;49.798;10.022;2022-09-13T17:02:11;22.00;93.60
5779;DHT22;2916;49.798;10.022;2022-09-13T17:04:38;22.10;97.20
5779;DHT22;2916;49.798;10.022;2022-09-13T17:07:06;22.10;96.20
5779;DHT22;2916;49.798;10.022;2022-09-13T17:09:33;22.10;99.90
5779;DHT22;2916;49.798;10.022;2022-09-13T17:12:01;22.10;99.90
5779;DHT22;2916;49.798;10.022;2022-09-13T17:14:30;22.00;99.90